createdAt,value
2023-02-13T00:03:14.129Z,0
2023-02-13T00:03:54.723Z,0
2023-02-13T00:04:35.155Z,0
2023-02-13T00:05:15.694Z,0
2023-02-13T00:05:56.254Z,0
2023-02-13T00:09:33.009Z,0
2023-02-13T00:10:13.566Z,0
2023-02-13T00:10:55.334Z,0
2023-02-13T00:11:36.237Z,0
2023-02-13T00:12:16.748Z,0
2023-02-13T00:12:57.238Z,0
2023-02-13T00:13:37.756Z,0
2023-02-13T00:18:22.793Z,0
2023-02-13T00:19:03.316Z,0
2023-02-13T00:19:43.877Z,0
2023-02-13T00:20:24.347Z,0
2023-02-13T00:22:52.621Z,0
2023-02-13T00:23:33.138Z,0
2023-02-13T00:24:13.641Z,0
2023-02-13T00:24:54.878Z,0
2023-02-13T00:25:35.424Z,0
2023-02-13T00:26:15.849Z,0
2023-02-13T00:26:56.339Z,0
2023-02-13T00:27:36.918Z,0
2023-02-13T00:28:17.453Z,0
2023-02-13T00:35:02.473Z,0
2023-02-13T00:35:43.522Z,0
2023-02-13T00:36:24.051Z,0
2023-02-13T00:37:04.595Z,0
2023-02-13T00:39:18.312Z,0
2023-02-13T00:39:58.826Z,0
2023-02-13T00:40:39.341Z,0
2023-02-13T00:41:19.838Z,0
2023-02-13T00:43:34.946Z,0
2023-02-13T00:44:15.472Z,0
2023-02-13T00:44:55.984Z,0
2023-02-13T00:45:36.549Z,0
2023-02-13T00:46:17.019Z,0
2023-02-13T00:46:57.511Z,0
2023-02-13T00:47:38.033Z,0
2023-02-13T00:48:19.162Z,0
2023-02-13T00:48:59.720Z,0
2023-02-13T00:54:24.732Z,0
2023-02-13T00:55:05.252Z,0
2023-02-13T00:55:45.768Z,0
2023-02-13T00:56:26.296Z,0
2023-02-13T00:57:06.780Z,0
2023-02-13T00:57:47.300Z,0
2023-02-13T00:58:27.841Z,0
2023-02-13T00:59:08.331Z,0
2023-02-13T01:01:22.844Z,0
2023-02-13T01:02:04.049Z,0
2023-02-13T01:02:45.313Z,0
2023-02-13T01:03:26.464Z,0
2023-02-13T01:05:40.100Z,0
2023-02-13T01:06:21.312Z,0
2023-02-13T01:07:01.878Z,0
2023-02-13T01:07:42.394Z,0
2023-02-13T01:11:37.468Z,0
2023-02-13T01:12:18.057Z,0
2023-02-13T01:12:58.515Z,0
2023-02-13T01:13:39.730Z,0
2023-02-13T01:14:20.227Z,0
2023-02-13T01:15:00.930Z,0
2023-02-13T01:15:41.528Z,0
2023-02-13T01:16:22.083Z,0
2023-02-13T01:17:03.455Z,0
2023-02-13T01:21:47.515Z,0
2023-02-13T01:22:28.015Z,0
2023-02-13T01:23:08.570Z,0
2023-02-13T01:23:49.047Z,0
2023-02-13T01:24:29.564Z,0
2023-02-13T01:25:10.072Z,0
2023-02-13T01:25:50.603Z,0
2023-02-13T01:26:31.124Z,0
2023-02-13T01:28:29.191Z,0
2023-02-13T01:29:09.601Z,0
2023-02-13T01:29:50.221Z,0
2023-02-13T01:30:30.689Z,0
2023-02-13T01:31:11.285Z,0
2023-02-13T01:31:52.171Z,0
2023-02-13T01:32:33.183Z,0
2023-02-13T01:33:13.694Z,0
2023-02-13T01:41:53.214Z,0
2023-02-13T01:42:33.795Z,0
2023-02-13T01:43:14.269Z,0
2023-02-13T01:43:54.775Z,0
2023-02-13T01:44:36.773Z,0
2023-02-13T01:45:17.329Z,0
2023-02-13T01:51:22.582Z,0
2023-02-13T01:52:03.097Z,0
2023-02-13T01:52:44.240Z,0
2023-02-13T01:53:24.748Z,0
2023-02-13T01:54:05.308Z,0
2023-02-13T01:56:33.824Z,0
2023-02-13T01:57:14.314Z,0
2023-02-13T01:57:54.859Z,0
2023-02-13T01:58:35.449Z,0
2023-02-13T01:59:16.054Z,0
2023-02-13T01:59:56.549Z,0
2023-02-13T02:00:37.061Z,0
2023-02-13T02:01:17.629Z,0
2023-02-13T02:01:58.367Z,0
2023-02-13T02:02:38.739Z,0
2023-02-13T02:07:23.501Z,0
2023-02-13T02:08:04.012Z,0
2023-02-13T02:08:44.496Z,0
2023-02-13T02:09:25.010Z,0
2023-02-13T02:10:05.561Z,0
2023-02-13T02:10:46.028Z,0
2023-02-13T02:11:26.531Z,0
2023-02-13T02:13:39.631Z,0
2023-02-13T02:14:20.135Z,0
2023-02-13T02:15:00.667Z,0
2023-02-13T02:15:41.258Z,0
2023-02-13T02:16:26.385Z,0
2023-02-13T02:19:48.253Z,0
2023-02-13T02:20:28.742Z,0
2023-02-13T02:21:09.258Z,0
2023-02-13T02:21:51.243Z,0
2023-02-13T02:24:04.877Z,0
2023-02-13T02:24:51.204Z,0
2023-02-13T02:25:31.746Z,0
2023-02-13T02:26:16.943Z,0
2023-02-13T02:28:31.584Z,0
2023-02-13T02:29:12.026Z,0
2023-02-13T02:29:52.563Z,0
2023-02-13T02:30:33.122Z,0
2023-02-13T02:31:13.666Z,0
2023-02-13T02:31:54.064Z,0
2023-02-13T02:32:35.494Z,0
2023-02-13T02:33:17.765Z,0
2023-02-13T02:36:41.186Z,0
2023-02-13T02:37:21.700Z,0
2023-02-13T02:39:34.757Z,0
2023-02-13T02:40:15.325Z,0
2023-02-13T02:40:56.066Z,0
2023-02-13T02:41:36.357Z,0
2023-02-13T02:42:16.934Z,0
2023-02-13T02:42:58.063Z,0
2023-02-13T02:45:32.277Z,0
2023-02-13T02:46:12.879Z,0
2023-02-13T02:46:53.326Z,0
2023-02-13T02:47:33.824Z,0
2023-02-13T02:48:14.312Z,0
2023-02-13T02:48:55.444Z,0
2023-02-13T02:49:35.933Z,0
2023-02-13T02:53:01.265Z,0
2023-02-13T02:53:41.785Z,0
2023-02-13T02:54:22.302Z,0
2023-02-13T02:55:03.481Z,0
2023-02-13T02:55:43.968Z,0
2023-02-13T02:56:24.503Z,0
2023-02-13T02:57:05.025Z,0
2023-02-13T02:59:20.010Z,0
2023-02-13T03:00:01.488Z,0
2023-02-13T03:00:42.052Z,0
2023-02-13T03:01:22.582Z,0
2023-02-13T03:02:03.054Z,0
2023-02-13T03:02:43.614Z,0
2023-02-13T03:03:24.096Z,0
2023-02-13T03:04:04.618Z,0
2023-02-13T03:08:10.061Z,0
2023-02-13T03:08:51.514Z,0
2023-02-13T03:09:32.686Z,0
2023-02-13T03:10:13.255Z,0
2023-02-13T03:10:54.588Z,0
2023-02-13T03:11:35.049Z,0
2023-02-13T03:13:40.079Z,0
2023-02-13T03:15:53.159Z,0
2023-02-13T03:16:33.748Z,0
2023-02-13T03:17:14.231Z,0
2023-02-13T03:17:54.748Z,0
2023-02-13T03:18:35.266Z,0
2023-02-13T03:19:15.826Z,0
2023-02-13T03:19:56.331Z,0
2023-02-13T03:20:36.848Z,0
2023-02-13T03:21:17.529Z,0
2023-02-13T03:21:58.044Z,0
2023-02-13T03:24:36.493Z,0
2023-02-13T03:25:17.022Z,0
2023-02-13T03:25:57.526Z,0
2023-02-13T03:26:38.061Z,0
2023-02-13T03:27:18.557Z,0
2023-02-13T03:27:59.162Z,0
2023-02-13T03:30:15.399Z,0
2023-02-13T03:30:57.684Z,0
2023-02-13T03:31:38.866Z,0
2023-02-13T03:32:19.348Z,0
2023-02-13T03:34:17.893Z,0
2023-02-13T03:34:58.432Z,0
2023-02-13T03:35:38.966Z,0
2023-02-13T03:36:19.495Z,0
2023-02-13T03:37:00.721Z,0
2023-02-13T03:37:41.160Z,0
2023-02-13T03:38:21.846Z,0
2023-02-13T03:39:02.359Z,0
2023-02-13T03:39:42.847Z,0
2023-02-13T03:46:14.662Z,0
2023-02-13T03:46:55.106Z,0
2023-02-13T03:47:35.658Z,0
2023-02-13T03:48:16.174Z,0
2023-02-13T03:48:56.666Z,0
2023-02-13T03:49:37.171Z,0
2023-02-13T03:50:17.679Z,0
2023-02-13T03:50:58.435Z,0
2023-02-13T03:51:38.709Z,0
2023-02-13T03:57:44.714Z,0
2023-02-13T03:58:25.286Z,0
2023-02-13T03:59:05.818Z,0
2023-02-13T03:59:46.343Z,0
2023-02-13T04:00:26.858Z,0
2023-02-13T04:01:07.433Z,0
2023-02-13T04:01:47.948Z,0
2023-02-13T04:02:29.196Z,0
2023-02-13T04:03:09.664Z,0
2023-02-13T04:08:51.968Z,0
2023-02-13T04:09:32.473Z,0
2023-02-13T04:10:13.008Z,0
2023-02-13T04:10:55.910Z,0
2023-02-13T04:13:13.018Z,0
2023-02-13T04:13:54.694Z,0
2023-02-13T04:14:36.975Z,0
2023-02-13T04:15:18.280Z,0
2023-02-13T04:17:31.320Z,0
2023-02-13T04:18:12.881Z,0
2023-02-13T04:18:53.425Z,0
2023-02-13T04:19:33.939Z,0
2023-02-13T04:21:48.158Z,0
2023-02-13T04:22:28.686Z,0
2023-02-13T04:23:09.210Z,0
2023-02-13T04:23:51.599Z,0
2023-02-13T04:26:06.134Z,0
2023-02-13T04:26:46.638Z,0
2023-02-13T04:27:27.171Z,0
2023-02-13T04:28:07.686Z,0
2023-02-13T04:28:48.167Z,0
2023-02-13T04:29:28.664Z,0
2023-02-13T04:30:09.228Z,0
2023-02-13T04:30:49.855Z,0
2023-02-13T04:31:30.333Z,0
2023-02-13T04:32:10.757Z,0
2023-02-13T04:35:29.734Z,0
2023-02-13T04:36:10.260Z,0
2023-02-13T04:36:50.776Z,0
2023-02-13T04:37:31.310Z,0
2023-02-13T04:38:12.531Z,0
2023-02-13T04:38:53.078Z,0
2023-02-13T04:39:33.578Z,0
2023-02-13T04:40:14.103Z,0
2023-02-13T04:40:54.630Z,0
2023-02-13T04:44:28.699Z,0
2023-02-13T04:45:09.200Z,0
2023-02-13T04:45:50.565Z,0
2023-02-13T04:46:31.031Z,0
2023-02-13T04:47:11.526Z,0
2023-02-13T04:47:52.693Z,0
2023-02-13T04:48:33.222Z,0
2023-02-13T04:49:13.727Z,0
2023-02-13T04:56:51.254Z,0
2023-02-13T04:57:32.630Z,0
2023-02-13T04:58:13.113Z,0
2023-02-13T04:58:54.725Z,0
2023-02-13T04:59:35.193Z,0
2023-02-13T05:00:15.726Z,0
2023-02-13T05:00:56.557Z,0
2023-02-13T05:04:21.438Z,0
2023-02-13T05:05:01.904Z,0
2023-02-13T05:05:42.967Z,0
2023-02-13T05:06:24.438Z,0
2023-02-13T05:07:04.925Z,0
2023-02-13T05:07:45.422Z,0
2023-02-13T05:08:25.966Z,0
2023-02-13T05:11:35.913Z,0
2023-02-13T05:12:16.526Z,0
2023-02-13T05:12:58.079Z,0
2023-02-13T05:13:38.605Z,0
2023-02-13T05:14:20.884Z,0
2023-02-13T05:18:39.188Z,0
2023-02-13T05:19:20.145Z,0
2023-02-13T05:20:00.676Z,0
2023-02-13T05:20:41.196Z,0
2023-02-13T05:22:55.166Z,0
2023-02-13T05:23:36.916Z,0
2023-02-13T05:24:19.477Z,0
2023-02-13T05:24:58.013Z,0
2023-02-13T05:25:38.792Z,0
2023-02-13T05:26:19.299Z,0
2023-02-13T05:28:24.005Z,0
2023-02-13T05:29:04.446Z,0
2023-02-13T05:29:46.739Z,0
2023-02-13T05:30:27.874Z,0
2023-02-13T05:32:40.649Z,0
2023-02-13T05:33:21.163Z,0
2023-02-13T05:34:01.712Z,0
2023-02-13T05:34:42.159Z,0
2023-02-13T05:35:22.699Z,0
2023-02-13T05:36:03.193Z,0
2023-02-13T05:36:43.700Z,0
2023-02-13T05:37:24.200Z,0
2023-02-13T05:38:04.798Z,0
2023-02-13T05:38:45.283Z,0
2023-02-13T05:44:50.687Z,0
2023-02-13T05:45:31.199Z,0
2023-02-13T05:46:11.785Z,0
2023-02-13T05:46:52.207Z,0
2023-02-13T05:47:32.758Z,0
2023-02-13T05:48:13.895Z,0
2023-02-13T05:48:54.460Z,0
2023-02-13T05:49:34.982Z,0
2023-02-13T05:50:15.474Z,0
2023-02-13T05:55:40.476Z,0
2023-02-13T05:56:21.820Z,0
2023-02-13T05:57:02.362Z,0
2023-02-13T05:57:42.859Z,0
2023-02-13T05:58:23.402Z,0
2023-02-13T05:59:03.913Z,0
2023-02-13T05:59:44.418Z,0
2023-02-13T06:00:24.918Z,0
2023-02-13T06:01:05.458Z,0
2023-02-13T06:06:30.530Z,4
2023-02-13T06:09:47.046Z,4
2023-02-13T06:10:27.600Z,0
2023-02-13T06:11:08.142Z,4
2023-02-13T06:11:48.651Z,4
2023-02-13T06:12:29.224Z,4
2023-02-13T06:13:09.750Z,8
2023-02-13T06:13:50.277Z,8
2023-02-13T06:14:30.773Z,4
2023-02-13T06:15:11.289Z,8
2023-02-13T06:15:51.828Z,8
2023-02-13T06:20:36.991Z,20
2023-02-13T06:21:18.359Z,20
2023-02-13T06:21:58.894Z,28
2023-02-13T06:22:39.450Z,28
2023-02-13T06:23:20.016Z,32
2023-02-13T06:24:00.565Z,36
2023-02-13T06:24:41.016Z,44
2023-02-13T06:25:21.532Z,48
2023-02-13T06:29:20.946Z,84
2023-02-13T06:30:01.477Z,88
2023-02-13T06:30:41.984Z,96
2023-02-13T06:31:22.623Z,104
2023-02-13T06:32:03.091Z,116
2023-02-13T06:32:43.538Z,124
2023-02-13T06:33:24.061Z,136
2023-02-13T06:34:04.617Z,144
2023-02-13T06:34:45.127Z,156
2023-02-13T06:35:25.665Z,168
2023-02-13T06:42:07.384Z,308
2023-02-13T06:42:47.947Z,324
2023-02-13T06:43:28.439Z,340
2023-02-13T06:44:09.655Z,360
2023-02-13T06:44:50.199Z,380
2023-02-13T06:45:30.700Z,396
2023-02-13T06:47:44.395Z,456
2023-02-13T06:48:25.020Z,480
2023-02-13T06:49:06.406Z,500
2023-02-13T06:49:47.041Z,520
2023-02-13T06:53:41.727Z,648
2023-02-13T06:54:28.721Z,668
2023-02-13T06:55:02.773Z,696
2023-02-13T06:55:43.375Z,720
2023-02-13T06:56:24.760Z,740
2023-02-13T06:57:05.290Z,764
2023-02-13T06:57:46.446Z,788
2023-02-13T07:04:31.526Z,1016
2023-02-13T07:05:12.034Z,1040
2023-02-13T07:05:52.548Z,1060
2023-02-13T07:06:33.631Z,1080
2023-02-13T07:07:14.475Z,1104
2023-02-13T07:09:29.065Z,1180
2023-02-13T07:10:09.617Z,1204
2023-02-13T07:10:50.146Z,1224
2023-02-13T07:11:31.002Z,1252
2023-02-13T07:12:12.175Z,1280
2023-02-13T07:13:04.883Z,1308
2023-02-13T07:13:33.226Z,1336
2023-02-13T07:20:18.432Z,1572
2023-02-13T07:22:31.450Z,1660
2023-02-13T07:23:13.094Z,1680
2023-02-13T07:23:54.379Z,1704
2023-02-13T07:24:34.875Z,1720
2023-02-13T07:26:55.840Z,1792
2023-02-13T07:27:36.764Z,1816
2023-02-13T07:28:18.725Z,1840
2023-02-13T07:29:10.360Z,1864
2023-02-13T07:31:12.521Z,1924
2023-02-13T07:31:52.961Z,1948
2023-02-13T07:32:33.460Z,1976
2023-02-13T07:33:13.997Z,1996
2023-02-13T07:33:54.514Z,2024
2023-02-13T07:34:35.091Z,2048
2023-02-13T07:35:15.567Z,2060
2023-02-13T07:35:56.122Z,2084
2023-02-13T07:36:36.662Z,2116
2023-02-13T07:37:17.222Z,2140
2023-02-13T07:41:33.267Z,2276
2023-02-13T07:42:13.809Z,2300
2023-02-13T07:42:54.371Z,2316
2023-02-13T07:43:34.896Z,2340
2023-02-13T07:45:33.239Z,2424
2023-02-13T07:46:13.782Z,2444
2023-02-13T07:46:55.173Z,2464
2023-02-13T07:47:35.627Z,2488
2023-02-13T07:48:18.510Z,2512
2023-02-13T07:50:57.294Z,2624
2023-02-13T07:51:37.626Z,2652
2023-02-13T07:52:18.188Z,2684
2023-02-13T07:52:58.727Z,2724
2023-02-13T07:57:13.020Z,2884
2023-02-13T07:57:53.563Z,2888
2023-02-13T07:58:34.065Z,2904
2023-02-13T07:59:14.595Z,2932
2023-02-13T07:59:55.094Z,2952
2023-02-13T08:00:35.652Z,2984
2023-02-13T08:01:16.137Z,2996
2023-02-13T08:01:56.837Z,3012
2023-02-13T08:02:37.849Z,3032
2023-02-13T08:08:38.918Z,3248
2023-02-13T08:09:20.115Z,3280
2023-02-13T08:10:00.664Z,3316
2023-02-13T08:10:41.775Z,3348
2023-02-13T08:11:22.927Z,3360
2023-02-13T08:13:51.269Z,3448
2023-02-13T08:14:31.782Z,3472
2023-02-13T08:15:12.317Z,3492
2023-02-13T08:15:52.800Z,3536
2023-02-13T08:16:33.374Z,3552
2023-02-13T08:17:13.817Z,3528
2023-02-13T08:17:54.844Z,3564
2023-02-13T08:18:35.340Z,3632
2023-02-13T08:19:15.763Z,3640
2023-02-13T08:19:56.312Z,3648
2023-02-13T08:24:41.091Z,3780
2023-02-13T08:26:53.822Z,3848
2023-02-13T08:27:34.348Z,3856
2023-02-13T08:28:14.918Z,3900
2023-02-13T08:28:55.362Z,3884
2023-02-13T08:29:35.894Z,3888
2023-02-13T08:31:55.629Z,3872
2023-02-13T08:32:52.037Z,3880
2023-02-13T08:33:17.229Z,3884
2023-02-13T08:33:57.700Z,3904
2023-02-13T08:34:38.213Z,4044
2023-02-13T08:35:19.628Z,3984
2023-02-13T08:36:00.264Z,4068
2023-02-13T08:41:37.011Z,4188
2023-02-13T08:42:17.509Z,4232
2023-02-13T08:42:58.058Z,4252
2023-02-13T08:43:38.599Z,4356
2023-02-13T08:45:56.986Z,4404
2023-02-13T08:46:37.539Z,4644
2023-02-13T08:47:17.929Z,4632
2023-02-13T08:47:58.613Z,4796
2023-02-13T08:48:39.064Z,5060
2023-02-13T08:49:19.639Z,5092
2023-02-13T08:50:00.137Z,5268
2023-02-13T08:50:40.501Z,5108
2023-02-13T08:51:21.037Z,5196
2023-02-13T08:52:01.538Z,5392
2023-02-13T08:57:27.016Z,5448
2023-02-13T08:58:07.560Z,5400
2023-02-13T08:58:48.152Z,5436
2023-02-13T09:01:16.545Z,5844
2023-02-13T09:01:57.107Z,5852
2023-02-13T09:02:37.715Z,5920
2023-02-13T09:03:19.142Z,5832
2023-02-13T09:03:59.707Z,5728
2023-02-13T09:04:40.209Z,5848
2023-02-13T09:05:20.746Z,5936
2023-02-13T09:07:19.959Z,5924
2023-02-13T09:08:01.076Z,6100
2023-02-13T09:08:41.599Z,6260
2023-02-13T09:09:22.173Z,6364
2023-02-13T09:10:02.696Z,6388
2023-02-13T09:10:43.207Z,6356
2023-02-13T09:11:23.795Z,6308
2023-02-13T09:13:52.692Z,6460
2023-02-13T09:14:33.242Z,6284
2023-02-13T09:15:14.750Z,6288
2023-02-13T09:15:56.407Z,6392
2023-02-13T09:17:54.620Z,5848
2023-02-13T09:18:36.021Z,5776
2023-02-13T09:19:16.584Z,5768
2023-02-13T09:19:57.116Z,5764
2023-02-13T09:20:38.396Z,5776
2023-02-13T09:21:19.401Z,5780
2023-02-13T09:26:56.817Z,5476
2023-02-13T09:27:37.363Z,5428
2023-02-13T09:28:17.951Z,5392
2023-02-13T09:28:59.293Z,5384
2023-02-13T09:29:39.830Z,5380
2023-02-13T09:30:21.189Z,5372
2023-02-13T09:31:01.773Z,5392
2023-02-13T09:35:06.503Z,5556
2023-02-13T09:35:47.001Z,5556
2023-02-13T09:38:15.518Z,5568
2023-02-13T09:38:55.793Z,5524
2023-02-13T09:39:36.293Z,5560
2023-02-13T09:40:16.764Z,5616
2023-02-13T09:40:57.287Z,5660
2023-02-13T09:41:37.835Z,5700
2023-02-13T09:42:18.344Z,5716
2023-02-13T09:42:59.768Z,5696
2023-02-13T09:43:40.284Z,5712
2023-02-13T09:52:13.558Z,5900
2023-02-13T09:52:55.839Z,5880
2023-02-13T09:53:36.325Z,5872
2023-02-13T09:54:16.910Z,5880
2023-02-13T09:58:12.941Z,5980
2023-02-13T09:58:53.447Z,6028
2023-02-13T09:59:34.028Z,6076
2023-02-13T10:00:14.550Z,6144
2023-02-13T10:00:55.098Z,6184
2023-02-13T10:01:35.703Z,6212
2023-02-13T10:02:16.147Z,6188
2023-02-13T10:04:29.173Z,6208
2023-02-13T10:05:09.742Z,6216
2023-02-13T10:05:50.201Z,6260
2023-02-13T10:06:30.708Z,6324
2023-02-13T10:08:45.284Z,6440
2023-02-13T10:09:25.818Z,6496
2023-02-13T10:10:06.316Z,6520
2023-02-13T10:10:46.944Z,6520
2023-02-13T10:11:27.436Z,6500
2023-02-13T10:13:40.166Z,6560
2023-02-13T10:14:20.785Z,6624
2023-02-13T10:15:01.308Z,6764
2023-02-13T10:15:41.878Z,6876
2023-02-13T10:16:22.437Z,7012
2023-02-13T10:17:02.935Z,7068
2023-02-13T10:17:43.474Z,7104
2023-02-13T10:18:24.900Z,7104
2023-02-13T10:23:50.204Z,6888
2023-02-13T10:24:30.839Z,6880
2023-02-13T10:25:11.587Z,6868
2023-02-13T10:25:52.630Z,6852
2023-02-13T10:26:33.170Z,6828
2023-02-13T10:27:13.706Z,6812
2023-02-13T10:27:54.723Z,6792
2023-02-13T10:31:29.895Z,6580
2023-02-13T10:32:13.824Z,6480
2023-02-13T10:32:55.166Z,6448
2023-02-13T10:33:36.433Z,6504
2023-02-13T10:36:59.384Z,7000
2023-02-13T10:37:39.915Z,7100
2023-02-13T10:38:20.464Z,7136
2023-02-13T10:39:00.993Z,7132
2023-02-13T10:39:41.471Z,7156
2023-02-13T10:40:22.528Z,7184
2023-02-13T10:41:04.391Z,7200
2023-02-13T10:45:59.696Z,7136
2023-02-13T10:46:40.022Z,7012
2023-02-13T10:47:20.473Z,6888
2023-02-13T10:48:00.997Z,6796
2023-02-13T10:50:29.274Z,6656
2023-02-13T10:51:09.879Z,6656
2023-02-13T10:51:50.376Z,6688
2023-02-13T10:52:32.723Z,6720
2023-02-13T10:55:03.012Z,6768
2023-02-13T10:55:42.751Z,6744
2023-02-13T10:56:24.170Z,6720
2023-02-13T10:57:04.674Z,6712
2023-02-13T10:57:45.172Z,6708
2023-02-13T10:58:26.644Z,6720
2023-02-13T11:00:40.692Z,6720
2023-02-13T11:01:20.374Z,6708
2023-02-13T11:02:00.901Z,6716
2023-02-13T11:02:41.394Z,6736
2023-02-13T11:03:23.799Z,6752
2023-02-13T11:04:04.371Z,6732
2023-02-13T11:07:20.903Z,6780
2023-02-13T11:08:01.424Z,6824
2023-02-13T11:08:41.952Z,6944
2023-02-13T11:09:22.747Z,7108
2023-02-13T11:10:03.252Z,7216
2023-02-13T11:12:16.009Z,7272
2023-02-13T11:12:56.593Z,7248
2023-02-13T11:13:37.068Z,7244
2023-02-13T11:14:17.616Z,7252
2023-02-13T11:14:58.182Z,7232
2023-02-13T11:15:38.737Z,7172
2023-02-13T11:16:19.300Z,7120
2023-02-13T11:16:59.840Z,7056
2023-02-13T11:17:40.374Z,6992
2023-02-13T11:18:20.916Z,6900
2023-02-13T11:21:40.013Z,6792
2023-02-13T11:22:20.537Z,6964
2023-02-13T11:23:01.097Z,7064
2023-02-13T11:23:41.859Z,7132
2023-02-13T11:24:22.295Z,7172
2023-02-13T11:26:35.037Z,7080
2023-02-13T11:27:15.557Z,7068
2023-02-13T11:27:56.126Z,7092
2023-02-13T11:28:36.715Z,7116
2023-02-13T11:29:17.190Z,7100
2023-02-13T11:29:57.766Z,7092
2023-02-13T11:32:10.983Z,7156
2023-02-13T11:32:51.426Z,7168
2023-02-13T11:33:31.984Z,7156
2023-02-13T11:34:12.506Z,7132
2023-02-13T11:34:53.113Z,7088
2023-02-13T11:35:33.666Z,7036
2023-02-13T11:36:14.212Z,6988
2023-02-13T11:36:54.819Z,6932
2023-02-13T11:39:07.583Z,6728
2023-02-13T11:39:50.183Z,6700
2023-02-13T11:40:28.618Z,6680
2023-02-13T11:41:09.187Z,6668
2023-02-13T11:41:49.720Z,6716
2023-02-13T11:42:30.378Z,6816
2023-02-13T11:43:10.894Z,6888
2023-02-13T11:43:51.432Z,6928
2023-02-13T11:44:32.050Z,6960
2023-02-13T11:45:12.535Z,6956
2023-02-13T11:52:09.172Z,6880
2023-02-13T11:52:50.607Z,6828
2023-02-13T11:53:31.103Z,6756
2023-02-13T11:54:11.669Z,6664
2023-02-13T11:56:25.985Z,6228
2023-02-13T11:57:06.834Z,6172
2023-02-13T11:57:49.443Z,6120
2023-02-13T11:58:30.828Z,6076
2023-02-13T12:00:43.861Z,5980
2023-02-13T12:01:24.415Z,5988
2023-02-13T12:02:04.908Z,5992
2023-02-13T12:02:45.531Z,5984
2023-02-13T12:03:25.997Z,5944
2023-02-13T12:04:06.387Z,5924
2023-02-13T12:04:46.887Z,5920
2023-02-13T12:05:28.232Z,5912
2023-02-13T12:06:08.755Z,5908
2023-02-13T12:12:31.870Z,5784
2023-02-13T12:13:12.420Z,5788
2023-02-13T12:13:52.953Z,5780
2023-02-13T12:14:33.506Z,5764
2023-02-13T12:16:47.401Z,5720
2023-02-13T12:17:32.298Z,5720
2023-02-13T12:18:08.601Z,5708
2023-02-13T12:18:49.614Z,5692
2023-02-13T12:19:30.177Z,5660
2023-02-13T12:20:10.656Z,5648
2023-02-13T12:20:51.799Z,5652
2023-02-13T12:26:16.223Z,5652
2023-02-13T12:26:56.738Z,5640
2023-02-13T12:27:37.286Z,5632
2023-02-13T12:28:17.785Z,5632
2023-02-13T12:28:58.344Z,5604
2023-02-13T12:31:11.587Z,5524
2023-02-13T12:31:52.198Z,5512
2023-02-13T12:32:32.681Z,5492
2023-02-13T12:33:13.190Z,5492
2023-02-13T12:33:54.365Z,5476
2023-02-13T12:34:34.885Z,5472
2023-02-13T12:37:08.534Z,5432
2023-02-13T12:37:49.969Z,5404
2023-02-13T12:38:30.461Z,5392
2023-02-13T12:39:13.528Z,5376
2023-02-13T12:39:54.114Z,5348
2023-02-13T12:43:19.080Z,5324
2023-02-13T12:44:03.333Z,5308
2023-02-13T12:46:49.020Z,5280
2023-02-13T12:47:31.337Z,5268
2023-02-13T12:48:12.627Z,5244
2023-02-13T12:48:55.596Z,5228
2023-02-13T12:50:18.978Z,5232
2023-02-13T12:51:01.225Z,5244
2023-02-13T12:51:41.713Z,5244
2023-02-13T12:52:25.000Z,5236
2023-02-13T12:55:08.848Z,5204
2023-02-13T12:55:49.427Z,5180
2023-02-13T12:58:03.932Z,5172
2023-02-13T12:58:44.451Z,5176
2023-02-13T12:59:26.508Z,5184
2023-02-13T13:00:05.513Z,5196
2023-02-13T13:02:20.610Z,5184
2023-02-13T13:03:01.114Z,5168
2023-02-13T13:03:42.589Z,5156
2023-02-13T13:04:23.987Z,5144
2023-02-13T13:05:04.566Z,5132
2023-02-13T13:05:50.616Z,5116
2023-02-13T13:11:22.766Z,4980
2023-02-13T13:12:04.877Z,4964
2023-02-13T13:12:46.353Z,4956
2023-02-13T13:13:27.211Z,4944
2023-02-13T13:16:47.503Z,4836
2023-02-13T13:17:28.078Z,4820
2023-02-13T13:18:08.667Z,4808
2023-02-13T13:18:49.234Z,4784
2023-02-13T13:19:29.824Z,4764
2023-02-13T13:22:49.068Z,4724
2023-02-13T13:23:30.530Z,4712
2023-02-13T13:24:10.127Z,4696
2023-02-13T13:24:50.644Z,4672
2023-02-13T13:25:31.210Z,4652
2023-02-13T13:26:11.771Z,4640
2023-02-13T13:26:52.419Z,4628
2023-02-13T13:27:32.944Z,4620
2023-02-13T13:28:14.004Z,4612
2023-02-13T13:33:40.002Z,4524
2023-02-13T13:34:20.613Z,4520
2023-02-13T13:35:02.548Z,4512
2023-02-13T13:35:43.032Z,4492
2023-02-13T13:36:23.629Z,4468
2023-02-13T13:37:05.040Z,4460
2023-02-13T13:41:09.129Z,4364
2023-02-13T13:41:49.646Z,4344
2023-02-13T13:42:31.143Z,4328
2023-02-13T13:43:11.635Z,4324
2023-02-13T13:43:52.128Z,4316
2023-02-13T13:44:32.645Z,4308
2023-02-13T13:45:13.134Z,4292
2023-02-13T13:45:53.701Z,4276
2023-02-13T13:50:43.253Z,4220
2023-02-13T13:56:09.706Z,4116
2023-02-13T13:56:50.058Z,4108
2023-02-13T13:57:30.531Z,4096
2023-02-13T13:58:11.091Z,4084
2023-02-13T13:58:52.251Z,4076
2023-02-13T13:59:32.796Z,4068
2023-02-13T14:00:14.430Z,4060
2023-02-13T14:00:53.807Z,4052
2023-02-13T14:05:39.087Z,3988
2023-02-13T14:07:52.172Z,3940
2023-02-13T14:08:33.398Z,3936
2023-02-13T14:09:13.951Z,3924
2023-02-13T14:09:54.470Z,3916
2023-02-13T14:10:34.997Z,3904
2023-02-13T14:11:16.363Z,3892
2023-02-13T14:11:56.872Z,3880
2023-02-13T14:17:21.858Z,3804
2023-02-13T14:18:02.376Z,3792
2023-02-13T14:18:42.888Z,3776
2023-02-13T14:21:57.639Z,3712
2023-02-13T14:22:38.173Z,3692
2023-02-13T14:24:51.692Z,3652
2023-02-13T14:25:32.302Z,3644
2023-02-13T14:26:12.744Z,3632
2023-02-13T14:27:04.511Z,3620
2023-02-13T14:27:34.349Z,3596
2023-02-13T14:28:14.860Z,3580
2023-02-13T14:28:56.315Z,3556
2023-02-13T14:29:36.693Z,3540
2023-02-13T14:34:21.515Z,3488
2023-02-13T14:35:02.078Z,3468
2023-02-13T14:35:42.543Z,3452
2023-02-13T14:36:23.052Z,3436
2023-02-13T14:37:03.529Z,3420
2023-02-13T14:37:44.018Z,3404
2023-02-13T14:40:12.343Z,3340
2023-02-13T14:40:52.889Z,3320
2023-02-13T14:41:33.467Z,3300
2023-02-13T14:42:14.906Z,3284
2023-02-13T14:44:28.915Z,3240
2023-02-13T14:45:09.420Z,3228
2023-02-13T14:45:49.923Z,3212
2023-02-13T14:46:30.487Z,3196
2023-02-13T14:47:10.954Z,3180
2023-02-13T14:47:51.458Z,3172
2023-02-13T14:48:32.032Z,3204
2023-02-13T14:49:12.628Z,3260
2023-02-13T14:51:10.576Z,3196
2023-02-13T14:51:51.079Z,3112
2023-02-13T14:52:31.650Z,3064
2023-02-13T14:53:12.151Z,3040
2023-02-13T14:53:52.686Z,3024
2023-02-13T14:54:33.209Z,3012
2023-02-13T14:55:13.792Z,2996
2023-02-13T14:55:55.176Z,2988
2023-02-13T14:58:33.696Z,2924
2023-02-13T14:59:14.260Z,2912
2023-02-13T14:59:55.334Z,2896
2023-02-13T15:00:35.960Z,2884
2023-02-13T15:01:16.502Z,2868
2023-02-13T15:01:57.050Z,2852
2023-02-13T15:02:37.538Z,2832
2023-02-13T15:03:18.856Z,2816
2023-02-13T15:08:03.913Z,2700
2023-02-13T15:08:44.430Z,2684
2023-02-13T15:09:24.962Z,2672
2023-02-13T15:10:05.514Z,2660
2023-02-13T15:10:47.394Z,2644
2023-02-13T15:11:27.895Z,2628
2023-02-13T15:12:08.402Z,2612
2023-02-13T15:16:53.482Z,2472
2023-02-13T15:17:34.017Z,2464
2023-02-13T15:18:14.542Z,2448
2023-02-13T15:18:55.053Z,2428
2023-02-13T15:19:35.594Z,2412
2023-02-13T15:20:17.629Z,2396
2023-02-13T15:20:58.847Z,2376
2023-02-13T15:23:12.442Z,2320
2023-02-13T15:23:53.138Z,2304
2023-02-13T15:24:33.659Z,2284
2023-02-13T15:25:14.194Z,2272
2023-02-13T15:25:54.756Z,2252
2023-02-13T15:26:35.302Z,2232
2023-02-13T15:27:15.803Z,2216
2023-02-13T15:29:49.995Z,2156
2023-02-13T15:30:29.488Z,2140
2023-02-13T15:31:10.067Z,2124
2023-02-13T15:31:51.563Z,2108
2023-02-13T15:32:31.832Z,2096
2023-02-13T15:33:12.345Z,2076
2023-02-13T15:33:53.779Z,2064
2023-02-13T15:39:30.021Z,1928
2023-02-13T15:40:10.561Z,1912
2023-02-13T15:40:51.056Z,1896
2023-02-13T15:41:31.595Z,1880
2023-02-13T15:42:13.808Z,1864
2023-02-13T15:42:54.831Z,1844
2023-02-13T15:47:00.118Z,1736
2023-02-13T15:47:40.660Z,1720
2023-02-13T15:48:22.144Z,1704
2023-02-13T15:49:02.680Z,1684
2023-02-13T15:49:43.228Z,1668
2023-02-13T15:51:57.069Z,1608
2023-02-13T15:52:37.635Z,1592
2023-02-13T15:53:18.934Z,1576
2023-02-13T15:54:00.186Z,1560
2023-02-13T15:56:12.934Z,1504
2023-02-13T15:56:53.484Z,1484
2023-02-13T15:57:36.407Z,1464
2023-02-13T15:58:16.966Z,1444
2023-02-13T15:58:57.452Z,1428
2023-02-13T15:59:39.440Z,1412
2023-02-13T16:03:43.056Z,1292
2023-02-13T16:04:23.535Z,1276
2023-02-13T16:05:04.090Z,1256
2023-02-13T16:05:45.430Z,1240
2023-02-13T16:06:26.620Z,1216
2023-02-13T16:07:07.992Z,1196
2023-02-13T16:10:48.857Z,1084